sensor_id;sensor_type;location;lat;lon;timestamp;P1;durP1;ratioP1;P2;durP2;ratioP2
79212;SDS011;68639;52.380;9.822;2023-06-26T00:01:37;10.68;;;7.93;;
79212;SDS011;68639;52.380;9.822;2023-06-26T00:04:04;13.10;;;8.13;;
79212;SDS011;68639;52.380;9.822;2023-06-26T00:06:30;9.60;;;8.18;;
79212;SDS011;68639;52.380;9.822;2023-06-26T00:08:55;12.02;;;8.65;;
79212;SDS011;68639;52.380;9.822;2023-06-26T00:11:21;10.98;;;7.90;;
79212;SDS011;68639;52.380;9.822;2023-06-26T00:13:46;10.23;;;8.00;;
79212;SDS011;68639;52.380;9.822;2023-06-26T00:16:11;11.20;;;8.40;;
79212;SDS011;68639;52.380;9.822;2023-06-26T00:18:37;8.73;;;7.82;;
79212;SDS011;68639;52.380;9.822;2023-06-26T00:21:02;11.15;;;8.15;;
79212;SDS011;68639;52.380;9.822;2023-06-26T00:23:27;10.00;;;7.82;;
79212;SDS011;68639;52.380;9.822;2023-06-26T00:25:53;14.73;;;7.90;;
79212;SDS011;68639;52.380;9.822;2023-06-26T00:28:18;13.23;;;8.10;;
79212;SDS011;68639;52.380;9.822;2023-06-26T00:30:43;9.98;;;8.32;;
79212;SDS011;68639;52.380;9.822;2023-06-26T00:33:08;9.30;;;8.18;;
79212;SDS011;68639;52.380;9.822;2023-06-26T00:35:34;9.80;;;8.30;;
79212;SDS011;68639;52.380;9.822;2023-06-26T00:38:00;9.57;;;8.38;;
79212;SDS011;68639;52.380;9.822;2023-06-26T00:40:25;10.43;;;8.30;;
79212;SDS011;68639;52.380;9.822;2023-06-26T00:42:51;10.95;;;8.45;;
79212;SDS011;68639;52.380;9.822;2023-06-26T00:45:16;9.57;;;8.32;;
79212;SDS011;68639;52.380;9.822;2023-06-26T00:47:42;10.15;;;8.02;;
79212;SDS011;68639;52.380;9.822;2023-06-26T00:50:07;10.93;;;8.70;;
79212;SDS011;68639;52.380;9.822;2023-06-26T00:52:33;12.10;;;8.70;;
79212;SDS011;68639;52.380;9.822;2023-06-26T00:54:58;9.50;;;8.02;;
79212;SDS011;68639;52.380;9.822;2023-06-26T00:57:23;10.68;;;8.35;;
79212;SDS011;68639;52.380;9.822;2023-06-26T00:59:49;11.30;;;8.90;;
79212;SDS011;68639;52.380;9.822;2023-06-26T01:02:14;13.82;;;8.82;;
79212;SDS011;68639;52.380;9.822;2023-06-26T01:04:42;11.82;;;8.32;;
79212;SDS011;68639;52.380;9.822;2023-06-26T01:07:12;12.73;;;8.02;;
79212;SDS011;68639;52.380;9.822;2023-06-26T01:09:37;10.73;;;8.50;;
79212;SDS011;68639;52.380;9.822;2023-06-26T01:12:03;13.35;;;8.63;;
79212;SDS011;68639;52.380;9.822;2023-06-26T01:14:28;13.00;;;8.90;;
79212;SDS011;68639;52.380;9.822;2023-06-26T01:16:53;10.68;;;8.20;;
79212;SDS011;68639;52.380;9.822;2023-06-26T01:19:26;10.55;;;8.73;;
79212;SDS011;68639;52.380;9.822;2023-06-26T01:22:02;11.32;;;8.73;;
79212;SDS011;68639;52.380;9.822;2023-06-26T01:24:32;11.35;;;8.82;;
79212;SDS011;68639;52.380;9.822;2023-06-26T01:26:58;10.57;;;8.77;;
79212;SDS011;68639;52.380;9.822;2023-06-26T01:29:24;10.85;;;8.82;;
79212;SDS011;68639;52.380;9.822;2023-06-26T01:31:50;10.52;;;8.27;;
79212;SDS011;68639;52.380;9.822;2023-06-26T01:34:16;9.82;;;8.52;;
79212;SDS011;68639;52.380;9.822;2023-06-26T01:36:42;9.43;;;8.07;;
79212;SDS011;68639;52.380;9.822;2023-06-26T01:39:07;14.60;;;8.13;;
79212;SDS011;68639;52.380;9.822;2023-06-26T01:41:33;13.40;;;8.98;;
79212;SDS011;68639;52.380;9.822;2023-06-26T01:46:30;12.50;;;8.85;;
79212;SDS011;68639;52.380;9.822;2023-06-26T01:49:07;9.98;;;8.73;;
79212;SDS011;68639;52.380;9.822;2023-06-26T01:51:35;11.68;;;8.90;;
79212;SDS011;68639;52.380;9.822;2023-06-26T01:54:03;13.25;;;8.48;;
79212;SDS011;68639;52.380;9.822;2023-06-26T01:56:30;12.70;;;8.40;;
79212;SDS011;68639;52.380;9.822;2023-06-26T01:58:56;11.40;;;8.70;;
79212;SDS011;68639;52.380;9.822;2023-06-26T02:01:21;9.50;;;8.40;;
79212;SDS011;68639;52.380;9.822;2023-06-26T02:03:47;11.05;;;9.15;;
79212;SDS011;68639;52.380;9.822;2023-06-26T02:06:13;10.77;;;8.50;;
79212;SDS011;68639;52.380;9.822;2023-06-26T02:08:38;11.38;;;9.00;;
79212;SDS011;68639;52.380;9.822;2023-06-26T02:11:03;11.70;;;9.10;;
79212;SDS011;68639;52.380;9.822;2023-06-26T02:13:28;11.13;;;7.85;;
79212;SDS011;68639;52.380;9.822;2023-06-26T02:15:54;12.50;;;9.68;;
79212;SDS011;68639;52.380;9.822;2023-06-26T02:18:19;11.98;;;9.32;;
79212;SDS011;68639;52.380;9.822;2023-06-26T02:20:46;14.85;;;8.77;;
79212;SDS011;68639;52.380;9.822;2023-06-26T02:23:11;9.55;;;8.50;;
79212;SDS011;68639;52.380;9.822;2023-06-26T02:25:37;11.38;;;8.85;;
79212;SDS011;68639;52.380;9.822;2023-06-26T02:28:02;11.52;;;8.90;;
79212;SDS011;68639;52.380;9.822;2023-06-26T02:30:28;11.07;;;8.80;;
79212;SDS011;68639;52.380;9.822;2023-06-26T02:32:53;11.10;;;8.40;;
79212;SDS011;68639;52.380;9.822;2023-06-26T02:35:18;9.93;;;8.52;;
79212;SDS011;68639;52.380;9.822;2023-06-26T02:37:43;11.45;;;8.90;;
79212;SDS011;68639;52.380;9.822;2023-06-26T02:40:09;12.15;;;8.82;;
79212;SDS011;68639;52.380;9.822;2023-06-26T02:42:35;10.75;;;9.18;;
79212;SDS011;68639;52.380;9.822;2023-06-26T02:45:00;13.43;;;9.18;;
79212;SDS011;68639;52.380;9.822;2023-06-26T02:47:25;10.93;;;9.00;;
79212;SDS011;68639;52.380;9.822;2023-06-26T02:49:51;10.20;;;8.88;;
79212;SDS011;68639;52.380;9.822;2023-06-26T02:52:16;10.95;;;8.70;;
79212;SDS011;68639;52.380;9.822;2023-06-26T02:54:41;10.52;;;8.68;;
79212;SDS011;68639;52.380;9.822;2023-06-26T02:57:06;11.98;;;8.55;;
79212;SDS011;68639;52.380;9.822;2023-06-26T02:59:32;9.63;;;8.27;;
79212;SDS011;68639;52.380;9.822;2023-06-26T03:01:57;9.93;;;8.93;;
79212;SDS011;68639;52.380;9.822;2023-06-26T03:04:22;13.18;;;9.27;;
79212;SDS011;68639;52.380;9.822;2023-06-26T03:06:47;11.85;;;9.23;;
79212;SDS011;68639;52.380;9.822;2023-06-26T03:09:12;10.13;;;8.82;;
79212;SDS011;68639;52.380;9.822;2023-06-26T03:11:38;9.23;;;8.30;;
79212;SDS011;68639;52.380;9.822;2023-06-26T03:14:03;12.25;;;8.77;;
79212;SDS011;68639;52.380;9.822;2023-06-26T03:16:28;10.77;;;8.40;;
79212;SDS011;68639;52.380;9.822;2023-06-26T03:18:53;9.93;;;7.90;;
79212;SDS011;68639;52.380;9.822;2023-06-26T03:21:18;10.88;;;8.45;;
79212;SDS011;68639;52.380;9.822;2023-06-26T03:23:44;10.48;;;8.02;;
79212;SDS011;68639;52.380;9.822;2023-06-26T03:26:09;9.68;;;8.43;;
79212;SDS011;68639;52.380;9.822;2023-06-26T03:28:34;12.00;;;8.43;;
79212;SDS011;68639;52.380;9.822;2023-06-26T03:30:59;9.18;;;7.93;;
79212;SDS011;68639;52.380;9.822;2023-06-26T03:33:24;13.68;;;8.15;;
79212;SDS011;68639;52.380;9.822;2023-06-26T03:35:50;10.55;;;8.23;;
79212;SDS011;68639;52.380;9.822;2023-06-26T03:38:15;9.57;;;7.85;;
79212;SDS011;68639;52.380;9.822;2023-06-26T03:40:40;12.73;;;7.57;;
79212;SDS011;68639;52.380;9.822;2023-06-26T03:43:05;11.60;;;6.97;;
79212;SDS011;68639;52.380;9.822;2023-06-26T03:45:31;9.73;;;6.75;;
79212;SDS011;68639;52.380;9.822;2023-06-26T03:47:56;10.25;;;7.43;;
79212;SDS011;68639;52.380;9.822;2023-06-26T03:50:21;11.50;;;7.75;;
79212;SDS011;68639;52.380;9.822;2023-06-26T03:52:47;9.75;;;7.15;;
79212;SDS011;68639;52.380;9.822;2023-06-26T03:55:12;8.93;;;6.93;;
79212;SDS011;68639;52.380;9.822;2023-06-26T03:57:37;10.07;;;6.75;;
79212;SDS011;68639;52.380;9.822;2023-06-26T04:00:02;10.25;;;6.47;;
79212;SDS011;68639;52.380;9.822;2023-06-26T04:02:33;12.50;;;6.50;;
79212;SDS011;68639;52.380;9.822;2023-06-26T04:04:58;9.90;;;6.53;;
79212;SDS011;68639;52.380;9.822;2023-06-26T04:07:23;8.68;;;6.60;;
79212;SDS011;68639;52.380;9.822;2023-06-26T04:09:49;8.00;;;6.20;;
79212;SDS011;68639;52.380;9.822;2023-06-26T04:12:15;8.23;;;6.20;;
79212;SDS011;68639;52.380;9.822;2023-06-26T04:14:40;7.75;;;5.80;;
79212;SDS011;68639;52.380;9.822;2023-06-26T04:17:05;10.70;;;5.82;;
79212;SDS011;68639;52.380;9.822;2023-06-26T04:19:30;12.45;;;5.32;;
79212;SDS011;68639;52.380;9.822;2023-06-26T04:21:56;11.32;;;5.35;;
79212;SDS011;68639;52.380;9.822;2023-06-26T04:24:21;7.40;;;5.00;;
79212;SDS011;68639;52.380;9.822;2023-06-26T04:26:46;6.40;;;4.32;;
79212;SDS011;68639;52.380;9.822;2023-06-26T04:29:12;5.68;;;4.13;;
79212;SDS011;68639;52.380;9.822;2023-06-26T04:31:38;7.65;;;3.80;;
79212;SDS011;68639;52.380;9.822;2023-06-26T04:34:03;9.25;;;4.10;;
79212;SDS011;68639;52.380;9.822;2023-06-26T04:36:28;10.43;;;4.33;;
79212;SDS011;68639;52.380;9.822;2023-06-26T04:38:54;9.03;;;4.30;;
79212;SDS011;68639;52.380;9.822;2023-06-26T04:41:19;7.53;;;3.78;;
79212;SDS011;68639;52.380;9.822;2023-06-26T04:43:44;7.33;;;4.07;;
79212;SDS011;68639;52.380;9.822;2023-06-26T04:46:09;7.03;;;4.10;;
79212;SDS011;68639;52.380;9.822;2023-06-26T04:48:35;7.32;;;4.10;;
79212;SDS011;68639;52.380;9.822;2023-06-26T04:51:00;7.72;;;3.92;;
79212;SDS011;68639;52.380;9.822;2023-06-26T04:53:25;7.18;;;4.03;;
79212;SDS011;68639;52.380;9.822;2023-06-26T04:55:51;5.45;;;4.20;;
79212;SDS011;68639;52.380;9.822;2023-06-26T04:58:17;5.85;;;3.92;;
79212;SDS011;68639;52.380;9.822;2023-06-26T05:00:42;7.55;;;4.03;;
79212;SDS011;68639;52.380;9.822;2023-06-26T05:03:11;8.25;;;4.25;;
79212;SDS011;68639;52.380;9.822;2023-06-26T05:05:37;7.93;;;4.07;;
79212;SDS011;68639;52.380;9.822;2023-06-26T05:10:43;10.52;;;4.28;;
79212;SDS011;68639;52.380;9.822;2023-06-26T05:13:09;9.43;;;4.65;;
79212;SDS011;68639;52.380;9.822;2023-06-26T05:15:36;6.60;;;4.35;;
79212;SDS011;68639;52.380;9.822;2023-06-26T05:18:01;7.50;;;4.15;;
79212;SDS011;68639;52.380;9.822;2023-06-26T05:20:26;6.68;;;4.70;;
79212;SDS011;68639;52.380;9.822;2023-06-26T05:22:51;7.30;;;4.43;;
79212;SDS011;68639;52.380;9.822;2023-06-26T05:25:17;6.68;;;4.22;;
79212;SDS011;68639;52.380;9.822;2023-06-26T05:27:43;6.47;;;4.60;;
79212;SDS011;68639;52.380;9.822;2023-06-26T05:30:08;7.15;;;4.55;;
79212;SDS011;68639;52.380;9.822;2023-06-26T05:32:34;7.63;;;4.75;;
79212;SDS011;68639;52.380;9.822;2023-06-26T05:34:59;6.97;;;4.38;;
79212;SDS011;68639;52.380;9.822;2023-06-26T05:37:26;6.53;;;4.75;;
79212;SDS011;68639;52.380;9.822;2023-06-26T05:39:52;6.20;;;4.20;;
79212;SDS011;68639;52.380;9.822;2023-06-26T05:42:17;6.93;;;4.60;;
79212;SDS011;68639;52.380;9.822;2023-06-26T05:44:42;7.75;;;4.20;;
79212;SDS011;68639;52.380;9.822;2023-06-26T05:47:08;6.40;;;4.47;;
79212;SDS011;68639;52.380;9.822;2023-06-26T05:49:33;7.07;;;4.40;;
79212;SDS011;68639;52.380;9.822;2023-06-26T05:51:58;7.00;;;4.57;;
79212;SDS011;68639;52.380;9.822;2023-06-26T05:54:24;7.28;;;4.72;;
79212;SDS011;68639;52.380;9.822;2023-06-26T05:56:49;5.95;;;4.32;;
79212;SDS011;68639;52.380;9.822;2023-06-26T05:59:16;7.03;;;4.32;;
79212;SDS011;68639;52.380;9.822;2023-06-26T06:01:42;8.77;;;4.30;;
79212;SDS011;68639;52.380;9.822;2023-06-26T06:04:07;6.15;;;4.55;;
79212;SDS011;68639;52.380;9.822;2023-06-26T06:06:32;6.27;;;4.50;;
79212;SDS011;68639;52.380;9.822;2023-06-26T06:08:57;6.95;;;4.60;;
79212;SDS011;68639;52.380;9.822;2023-06-26T06:11:23;6.05;;;4.00;;
79212;SDS011;68639;52.380;9.822;2023-06-26T06:13:48;8.23;;;4.40;;
79212;SDS011;68639;52.380;9.822;2023-06-26T06:16:13;7.05;;;4.28;;
79212;SDS011;68639;52.380;9.822;2023-06-26T06:18:39;11.43;;;4.30;;
79212;SDS011;68639;52.380;9.822;2023-06-26T06:21:04;9.20;;;4.93;;
79212;SDS011;68639;52.380;9.822;2023-06-26T06:23:29;7.97;;;4.78;;
79212;SDS011;68639;52.380;9.822;2023-06-26T06:25:54;5.57;;;4.30;;
79212;SDS011;68639;52.380;9.822;2023-06-26T06:28:19;7.45;;;4.95;;
79212;SDS011;68639;52.380;9.822;2023-06-26T06:30:45;10.32;;;4.60;;
79212;SDS011;68639;52.380;9.822;2023-06-26T06:33:12;5.90;;;4.47;;
79212;SDS011;68639;52.380;9.822;2023-06-26T06:35:37;6.57;;;4.53;;
79212;SDS011;68639;52.380;9.822;2023-06-26T06:38:02;6.10;;;4.85;;
79212;SDS011;68639;52.380;9.822;2023-06-26T06:40:28;9.38;;;4.93;;
79212;SDS011;68639;52.380;9.822;2023-06-26T06:42:53;7.22;;;5.07;;
79212;SDS011;68639;52.380;9.822;2023-06-26T06:45:18;6.67;;;4.57;;
79212;SDS011;68639;52.380;9.822;2023-06-26T06:47:43;7.93;;;4.67;;
79212;SDS011;68639;52.380;9.822;2023-06-26T06:50:08;7.60;;;4.63;;
79212;SDS011;68639;52.380;9.822;2023-06-26T06:52:37;6.38;;;4.15;;
79212;SDS011;68639;52.380;9.822;2023-06-26T06:55:03;6.88;;;4.43;;
79212;SDS011;68639;52.380;9.822;2023-06-26T06:57:33;6.40;;;4.90;;
79212;SDS011;68639;52.380;9.822;2023-06-26T07:00:01;7.10;;;4.70;;
79212;SDS011;68639;52.380;9.822;2023-06-26T07:02:26;9.52;;;4.63;;
79212;SDS011;68639;52.380;9.822;2023-06-26T07:04:52;8.37;;;4.40;;
79212;SDS011;68639;52.380;9.822;2023-06-26T07:07:18;5.87;;;5.10;;
79212;SDS011;68639;52.380;9.822;2023-06-26T07:09:43;7.32;;;4.60;;
79212;SDS011;68639;52.380;9.822;2023-06-26T07:12:08;7.50;;;4.60;;
79212;SDS011;68639;52.380;9.822;2023-06-26T07:14:34;6.47;;;4.90;;
79212;SDS011;68639;52.380;9.822;2023-06-26T07:16:59;6.88;;;4.72;;
79212;SDS011;68639;52.380;9.822;2023-06-26T07:19:24;42.65;;;6.40;;
79212;SDS011;68639;52.380;9.822;2023-06-26T07:21:50;8.88;;;4.63;;
79212;SDS011;68639;52.380;9.822;2023-06-26T07:24:15;7.13;;;4.65;;
79212;SDS011;68639;52.380;9.822;2023-06-26T07:26:40;8.80;;;5.10;;
79212;SDS011;68639;52.380;9.822;2023-06-26T07:29:05;19.13;;;5.30;;
79212;SDS011;68639;52.380;9.822;2023-06-26T07:31:30;11.15;;;5.07;;
79212;SDS011;68639;52.380;9.822;2023-06-26T07:33:56;5.97;;;4.80;;
79212;SDS011;68639;52.380;9.822;2023-06-26T07:36:21;13.80;;;5.33;;
79212;SDS011;68639;52.380;9.822;2023-06-26T07:38:46;7.82;;;5.10;;
79212;SDS011;68639;52.380;9.822;2023-06-26T07:41:11;6.67;;;5.00;;
79212;SDS011;68639;52.380;9.822;2023-06-26T07:43:37;8.23;;;5.03;;
79212;SDS011;68639;52.380;9.822;2023-06-26T07:46:02;7.93;;;4.83;;
79212;SDS011;68639;52.380;9.822;2023-06-26T07:48:27;8.47;;;5.10;;
79212;SDS011;68639;52.380;9.822;2023-06-26T07:50:52;5.97;;;4.60;;
79212;SDS011;68639;52.380;9.822;2023-06-26T07:53:18;7.60;;;5.05;;
79212;SDS011;68639;52.380;9.822;2023-06-26T07:55:43;10.33;;;5.43;;
79212;SDS011;68639;52.380;9.822;2023-06-26T07:58:08;7.03;;;4.97;;
79212;SDS011;68639;52.380;9.822;2023-06-26T08:00:34;7.55;;;4.80;;
79212;SDS011;68639;52.380;9.822;2023-06-26T08:02:59;8.32;;;5.10;;
79212;SDS011;68639;52.380;9.822;2023-06-26T08:05:24;6.70;;;4.80;;
79212;SDS011;68639;52.380;9.822;2023-06-26T08:07:50;9.50;;;5.00;;
79212;SDS011;68639;52.380;9.822;2023-06-26T08:10:15;8.80;;;5.00;;
79212;SDS011;68639;52.380;9.822;2023-06-26T08:12:40;5.87;;;4.67;;
79212;SDS011;68639;52.380;9.822;2023-06-26T08:15:07;7.63;;;4.95;;
79212;SDS011;68639;52.380;9.822;2023-06-26T08:17:33;10.00;;;5.00;;
79212;SDS011;68639;52.380;9.822;2023-06-26T08:19:58;8.88;;;5.25;;
79212;SDS011;68639;52.380;9.822;2023-06-26T08:22:23;7.57;;;5.15;;
79212;SDS011;68639;52.380;9.822;2023-06-26T08:24:48;7.00;;;4.78;;
79212;SDS011;68639;52.380;9.822;2023-06-26T08:27:14;7.20;;;5.13;;
79212;SDS011;68639;52.380;9.822;2023-06-26T08:29:39;9.70;;;5.35;;
79212;SDS011;68639;52.380;9.822;2023-06-26T08:32:04;9.68;;;4.85;;
79212;SDS011;68639;52.380;9.822;2023-06-26T08:34:29;9.23;;;5.18;;
79212;SDS011;68639;52.380;9.822;2023-06-26T08:36:55;11.23;;;5.13;;
79212;SDS011;68639;52.380;9.822;2023-06-26T08:39:20;11.97;;;5.27;;
79212;SDS011;68639;52.380;9.822;2023-06-26T08:41:45;7.73;;;4.90;;
79212;SDS011;68639;52.380;9.822;2023-06-26T08:44:10;8.15;;;5.03;;
79212;SDS011;68639;52.380;9.822;2023-06-26T08:46:36;8.43;;;5.33;;
79212;SDS011;68639;52.380;9.822;2023-06-26T08:49:02;7.25;;;4.88;;
79212;SDS011;68639;52.380;9.822;2023-06-26T08:51:30;9.80;;;4.90;;
79212;SDS011;68639;52.380;9.822;2023-06-26T08:54:01;8.27;;;5.40;;
79212;SDS011;68639;52.380;9.822;2023-06-26T08:56:27;8.95;;;4.80;;
79212;SDS011;68639;52.380;9.822;2023-06-26T08:58:53;10.10;;;5.40;;
79212;SDS011;68639;52.380;9.822;2023-06-26T09:01:20;9.07;;;5.05;;
79212;SDS011;68639;52.380;9.822;2023-06-26T09:03:45;7.07;;;5.20;;
79212;SDS011;68639;52.380;9.822;2023-06-26T09:06:10;8.10;;;5.25;;
79212;SDS011;68639;52.380;9.822;2023-06-26T09:08:36;13.45;;;5.55;;
79212;SDS011;68639;52.380;9.822;2023-06-26T09:11:01;12.48;;;5.88;;
79212;SDS011;68639;52.380;9.822;2023-06-26T09:13:28;14.35;;;6.72;;
79212;SDS011;68639;52.380;9.822;2023-06-26T09:15:53;14.63;;;6.40;;
79212;SDS011;68639;52.380;9.822;2023-06-26T09:18:20;11.30;;;5.88;;
79212;SDS011;68639;52.380;9.822;2023-06-26T09:20:46;9.50;;;5.85;;
79212;SDS011;68639;52.380;9.822;2023-06-26T09:23:11;12.18;;;6.50;;
79212;SDS011;68639;52.380;9.822;2023-06-26T09:25:38;11.18;;;6.15;;
79212;SDS011;68639;52.380;9.822;2023-06-26T09:28:04;15.25;;;6.75;;
79212;SDS011;68639;52.380;9.822;2023-06-26T09:30:31;17.77;;;6.25;;
79212;SDS011;68639;52.380;9.822;2023-06-26T09:32:56;8.18;;;5.80;;
79212;SDS011;68639;52.380;9.822;2023-06-26T09:35:22;9.18;;;5.70;;
79212;SDS011;68639;52.380;9.822;2023-06-26T09:37:47;7.57;;;5.30;;
79212;SDS011;68639;52.380;9.822;2023-06-26T09:40:13;15.10;;;6.15;;
79212;SDS011;68639;52.380;9.822;2023-06-26T09:42:38;12.60;;;6.78;;
79212;SDS011;68639;52.380;9.822;2023-06-26T09:45:03;9.68;;;6.28;;
79212;SDS011;68639;52.380;9.822;2023-06-26T09:47:32;11.13;;;6.70;;
79212;SDS011;68639;52.380;9.822;2023-06-26T09:49:58;9.50;;;6.40;;
79212;SDS011;68639;52.380;9.822;2023-06-26T09:52:25;14.40;;;7.07;;
79212;SDS011;68639;52.380;9.822;2023-06-26T09:54:51;13.52;;;7.68;;
79212;SDS011;68639;52.380;9.822;2023-06-26T09:57:31;14.25;;;8.27;;
79212;SDS011;68639;52.380;9.822;2023-06-26T09:59:59;14.25;;;7.50;;
79212;SDS011;68639;52.380;9.822;2023-06-26T10:02:24;10.57;;;7.35;;
79212;SDS011;68639;52.380;9.822;2023-06-26T10:04:49;11.30;;;7.90;;
79212;SDS011;68639;52.380;9.822;2023-06-26T10:07:15;13.27;;;7.43;;
79212;SDS011;68639;52.380;9.822;2023-06-26T10:09:42;11.32;;;7.20;;
79212;SDS011;68639;52.380;9.822;2023-06-26T10:12:29;14.20;;;7.15;;
79212;SDS011;68639;52.380;9.822;2023-06-26T10:14:53;14.82;;;8.05;;
79212;SDS011;68639;52.380;9.822;2023-06-26T10:17:19;14.15;;;7.88;;
79212;SDS011;68639;52.380;9.822;2023-06-26T10:19:45;14.93;;;8.00;;
79212;SDS011;68639;52.380;9.822;2023-06-26T10:22:12;16.83;;;9.77;;
79212;SDS011;68639;52.380;9.822;2023-06-26T10:24:39;18.48;;;8.43;;
79212;SDS011;68639;52.380;9.822;2023-06-26T10:27:10;22.52;;;8.73;;
79212;SDS011;68639;52.380;9.822;2023-06-26T10:29:38;17.70;;;8.70;;
79212;SDS011;68639;52.380;9.822;2023-06-26T10:32:04;19.23;;;9.00;;
79212;SDS011;68639;52.380;9.822;2023-06-26T10:34:30;13.80;;;7.80;;
79212;SDS011;68639;52.380;9.822;2023-06-26T10:37:02;19.70;;;7.05;;
79212;SDS011;68639;52.380;9.822;2023-06-26T10:39:48;19.75;;;7.53;;
79212;SDS011;68639;52.380;9.822;2023-06-26T10:42:14;12.20;;;7.10;;
79212;SDS011;68639;52.380;9.822;2023-06-26T10:44:40;10.13;;;6.65;;
79212;SDS011;68639;52.380;9.822;2023-06-26T10:47:06;12.30;;;7.13;;
79212;SDS011;68639;52.380;9.822;2023-06-26T10:49:31;18.03;;;7.70;;
79212;SDS011;68639;52.380;9.822;2023-06-26T10:52:00;19.52;;;8.70;;
79212;SDS011;68639;52.380;9.822;2023-06-26T10:54:28;17.38;;;8.88;;
79212;SDS011;68639;52.380;9.822;2023-06-26T10:56:54;15.77;;;10.32;;
79212;SDS011;68639;52.380;9.822;2023-06-26T10:59:22;16.70;;;9.23;;
79212;SDS011;68639;52.380;9.822;2023-06-26T11:02:05;17.88;;;11.02;;
79212;SDS011;68639;52.380;9.822;2023-06-26T11:07:15;21.00;;;10.73;;
79212;SDS011;68639;52.380;9.822;2023-06-26T11:09:54;15.98;;;11.43;;
79212;SDS011;68639;52.380;9.822;2023-06-26T11:12:35;21.45;;;11.32;;
79212;SDS011;68639;52.380;9.822;2023-06-26T11:15:02;17.25;;;10.93;;
79212;SDS011;68639;52.380;9.822;2023-06-26T11:17:27;15.73;;;9.95;;
79212;SDS011;68639;52.380;9.822;2023-06-26T11:19:53;16.30;;;10.63;;
79212;SDS011;68639;52.380;9.822;2023-06-26T11:22:19;13.52;;;10.10;;
79212;SDS011;68639;52.380;9.822;2023-06-26T11:24:45;13.23;;;9.63;;
79212;SDS011;68639;52.380;9.822;2023-06-26T11:27:10;15.25;;;9.15;;
79212;SDS011;68639;52.380;9.822;2023-06-26T11:29:35;16.70;;;9.20;;
79212;SDS011;68639;52.380;9.822;2023-06-26T11:32:02;12.45;;;8.30;;
79212;SDS011;68639;52.380;9.822;2023-06-26T11:34:29;13.43;;;8.23;;
79212;SDS011;68639;52.380;9.822;2023-06-26T11:36:56;13.32;;;8.27;;
79212;SDS011;68639;52.380;9.822;2023-06-26T11:39:21;13.70;;;8.10;;
79212;SDS011;68639;52.380;9.822;2023-06-26T11:41:46;14.33;;;7.77;;
79212;SDS011;68639;52.380;9.822;2023-06-26T11:44:12;16.40;;;7.45;;
79212;SDS011;68639;52.380;9.822;2023-06-26T11:46:39;13.07;;;7.63;;
79212;SDS011;68639;52.380;9.822;2023-06-26T11:49:07;13.63;;;7.53;;
79212;SDS011;68639;52.380;9.822;2023-06-26T11:51:32;12.48;;;7.05;;
79212;SDS011;68639;52.380;9.822;2023-06-26T11:54:00;11.40;;;6.82;;
79212;SDS011;68639;52.380;9.822;2023-06-26T11:56:26;13.48;;;7.50;;
79212;SDS011;68639;52.380;9.822;2023-06-26T12:01:26;11.27;;;6.95;;
79212;SDS011;68639;52.380;9.822;2023-06-26T12:03:53;10.18;;;6.22;;
79212;SDS011;68639;52.380;9.822;2023-06-26T12:06:18;11.18;;;6.03;;
79212;SDS011;68639;52.380;9.822;2023-06-26T12:08:44;11.68;;;5.95;;
79212;SDS011;68639;52.380;9.822;2023-06-26T12:11:09;11.98;;;4.88;;
79212;SDS011;68639;52.380;9.822;2023-06-26T12:13:35;10.07;;;4.80;;
79212;SDS011;68639;52.380;9.822;2023-06-26T12:16:00;8.07;;;4.07;;
79212;SDS011;68639;52.380;9.822;2023-06-26T12:18:25;7.60;;;3.80;;
79212;SDS011;68639;52.380;9.822;2023-06-26T12:20:51;6.43;;;3.58;;
79212;SDS011;68639;52.380;9.822;2023-06-26T12:23:17;6.68;;;3.58;;
79212;SDS011;68639;52.380;9.822;2023-06-26T12:25:43;8.27;;;3.50;;
79212;SDS011;68639;52.380;9.822;2023-06-26T12:28:17;7.47;;;3.00;;
79212;SDS011;68639;52.380;9.822;2023-06-26T12:30:46;8.13;;;3.70;;
79212;SDS011;68639;52.380;9.822;2023-06-26T12:33:15;7.88;;;3.05;;
79212;SDS011;68639;52.380;9.822;2023-06-26T12:35:40;6.32;;;3.25;;
79212;SDS011;68639;52.380;9.822;2023-06-26T12:38:07;6.80;;;3.15;;
79212;SDS011;68639;52.380;9.822;2023-06-26T12:40:35;8.20;;;3.78;;
79212;SDS011;68639;52.380;9.822;2023-06-26T12:43:01;7.13;;;3.50;;
79212;SDS011;68639;52.380;9.822;2023-06-26T12:45:27;13.65;;;3.50;;
79212;SDS011;68639;52.380;9.822;2023-06-26T12:47:52;6.07;;;3.28;;
79212;SDS011;68639;52.380;9.822;2023-06-26T12:50:17;8.18;;;3.38;;
79212;SDS011;68639;52.380;9.822;2023-06-26T12:52:43;7.93;;;3.83;;
79212;SDS011;68639;52.380;9.822;2023-06-26T12:55:08;6.72;;;2.90;;
79212;SDS011;68639;52.380;9.822;2023-06-26T12:57:33;5.93;;;3.17;;
79212;SDS011;68639;52.380;9.822;2023-06-26T12:59:59;6.57;;;3.67;;
79212;SDS011;68639;52.380;9.822;2023-06-26T13:02:25;12.73;;;3.70;;
79212;SDS011;68639;52.380;9.822;2023-06-26T13:04:51;8.30;;;3.75;;
79212;SDS011;68639;52.380;9.822;2023-06-26T13:07:16;7.05;;;3.20;;
79212;SDS011;68639;52.380;9.822;2023-06-26T13:09:41;11.88;;;3.10;;
79212;SDS011;68639;52.380;9.822;2023-06-26T13:12:07;7.65;;;2.60;;
79212;SDS011;68639;52.380;9.822;2023-06-26T13:14:32;7.30;;;3.15;;
79212;SDS011;68639;52.380;9.822;2023-06-26T13:16:57;8.63;;;3.38;;
79212;SDS011;68639;52.380;9.822;2023-06-26T13:19:23;8.82;;;3.20;;
79212;SDS011;68639;52.380;9.822;2023-06-26T13:21:48;6.25;;;2.78;;
79212;SDS011;68639;52.380;9.822;2023-06-26T13:24:13;9.13;;;2.90;;
79212;SDS011;68639;52.380;9.822;2023-06-26T13:26:38;5.95;;;2.80;;
79212;SDS011;68639;52.380;9.822;2023-06-26T13:29:04;5.88;;;2.42;;
79212;SDS011;68639;52.380;9.822;2023-06-26T13:31:29;6.22;;;2.17;;
79212;SDS011;68639;52.380;9.822;2023-06-26T13:33:56;6.75;;;2.55;;
79212;SDS011;68639;52.380;9.822;2023-06-26T13:36:22;7.18;;;2.38;;
79212;SDS011;68639;52.380;9.822;2023-06-26T13:38:47;14.45;;;2.30;;
79212;SDS011;68639;52.380;9.822;2023-06-26T13:41:15;4.20;;;2.00;;
79212;SDS011;68639;52.380;9.822;2023-06-26T13:43:40;5.32;;;2.30;;
79212;SDS011;68639;52.380;9.822;2023-06-26T13:46:05;8.77;;;2.00;;
79212;SDS011;68639;52.380;9.822;2023-06-26T13:48:31;6.22;;;1.75;;
79212;SDS011;68639;52.380;9.822;2023-06-26T13:50:56;7.82;;;2.53;;
79212;SDS011;68639;52.380;9.822;2023-06-26T13:53:22;6.78;;;1.88;;
79212;SDS011;68639;52.380;9.822;2023-06-26T13:55:47;6.13;;;2.03;;
79212;SDS011;68639;52.380;9.822;2023-06-26T13:58:12;5.07;;;1.83;;
79212;SDS011;68639;52.380;9.822;2023-06-26T14:00:38;6.43;;;1.73;;
79212;SDS011;68639;52.380;9.822;2023-06-26T14:03:03;3.47;;;1.85;;
79212;SDS011;68639;52.380;9.822;2023-06-26T14:05:29;5.90;;;2.13;;
79212;SDS011;68639;52.380;9.822;2023-06-26T14:07:55;5.53;;;1.85;;
79212;SDS011;68639;52.380;9.822;2023-06-26T14:10:20;4.88;;;1.88;;
79212;SDS011;68639;52.380;9.822;2023-06-26T14:12:46;4.88;;;2.08;;
79212;SDS011;68639;52.380;9.822;2023-06-26T14:15:11;5.65;;;2.10;;
79212;SDS011;68639;52.380;9.822;2023-06-26T14:17:36;8.50;;;2.42;;
79212;SDS011;68639;52.380;9.822;2023-06-26T14:20:06;7.10;;;1.80;;
79212;SDS011;68639;52.380;9.822;2023-06-26T14:22:34;3.40;;;1.77;;
79212;SDS011;68639;52.380;9.822;2023-06-26T14:24:59;7.77;;;1.87;;
79212;SDS011;68639;52.380;9.822;2023-06-26T14:27:25;13.13;;;2.00;;
79212;SDS011;68639;52.380;9.822;2023-06-26T14:29:50;3.63;;;1.77;;
79212;SDS011;68639;52.380;9.822;2023-06-26T14:32:15;6.63;;;1.60;;
79212;SDS011;68639;52.380;9.822;2023-06-26T14:34:40;9.17;;;2.13;;
79212;SDS011;68639;52.380;9.822;2023-06-26T14:37:05;3.72;;;1.73;;
79212;SDS011;68639;52.380;9.822;2023-06-26T14:39:31;4.38;;;1.80;;
79212;SDS011;68639;52.380;9.822;2023-06-26T14:41:56;5.33;;;2.00;;
79212;SDS011;68639;52.380;9.822;2023-06-26T14:44:21;7.63;;;2.00;;